Terminal Aerodrome Forecast
Issued by NWS Louisville, KY

Home | Current Version | Previous Version | Text Only | Print | Product List | Glossary On
Versions: 1 2 3 4 5 6 7 8 9 10 11 12 13 14 15 16
233
FTUS43 KLMK 201430 AAA
TAFLEX
TAF AMD
KLEX 201430Z 2015/2112 20010KT P6SM BKN250
     FM201700 22012G18KT P6SM BKN025
     FM202300 18008KT P6SM BKN021=

USA.gov is the U.S. government's official web portal to all federal, state and local government web resources and services.